LIPX 210120Z 10008KT 070V130 9999 SCT070 16/10 Q1019 LIPX 210020Z 10007KT 060V140 9999 SCT075 16/13 Q1019 LIPX 202350Z 10005KT 070V130 9999 SCT070 16/13 Q1019 LIPX 202250Z 08007KT 9999 SCT090 17/13 Q1019 LIPX 202220Z 05006KT 9999 SCT090 17/13 Q1018 LIPX 202150Z 08008KT 9999 SCT090 17/14 Q1018 LIPX 202120Z 08006KT 060V120 9999 -RA SCT090 18/13 Q1018 LIPX 202050Z 09008KT 9999 -DZ SCT090 18/13 Q1018 LIPX 202020Z 10006KT 040V130 9999 -RA SCT090 18/13 Q1018 LIPX 201950Z 12005KT 9999 -RA SCT050 18/13 Q1017 LIPX 201920Z 09004KT 060V120 9999 -RA BKN050 18/13 Q1017 LIPX 201850Z 07004KT 9999 SCT090 19/13 Q1016 LIPX 201820Z 06004KT CAVOK 19/12 Q1016 LIPX 201750Z 06006KT 9999 SCT050 19/12 Q1015 LIPX 201720Z 05007KT 9999 SCT050 20/11 Q1015 LIPX 201650Z 06007KT 030V090 9999 BKN050 21/11 Q1015 LIPX 201620Z 04010KT 9999 BKN050 23/11 Q1014 LIPX 201550Z 10006KT 070V140 9999 SCT050 24/12 Q1014 LIPX 201520Z 08006KT 040V130 9999 SCT050 24/12 Q1014 LIPX 201450Z 08008KT 040V110 9999 SCT050 24/12 Q1014 LIPX 201420Z 09005KT 010V150 9999 SCT050 24/13 Q1014 LIPX 201350Z 09005KT 040V140 CAVOK 24/12 Q1014 LIPX 201320Z 14006KT 090V180 CAVOK 24/13 Q1014 LIPX 201250Z 09005KT 030V150 9999 SCT040 23/13 Q1014 LIPX 201220Z 14005KT 080V200 9999 FEW030 23/14 Q1014 LIPX 201150Z 12006KT 040V170 9999 SCT030 23/14 Q1014 LIPX 201120Z 14007KT 090V180 9999 SCT030 22/14 Q1014 LIPX 201050Z 15006KT 100V180 9999 SCT030 22/14 Q1014 LIPX 201020Z 13006KT 050V180 9999 FEW030 21/14 Q1014 LIPX 200950Z 12006KT 070V170 9999 FEW030 21/14 Q1014 LIPX 200920Z 13005KT 090V180 CAVOK 20/14 Q1014 LIPX 200850Z 11005KT 050V160 CAVOK 20/15 Q1013 LIPX 200820Z 05006KT 020V090 CAVOK 19/15 Q1013 LIPX 200750Z 05007KT CAVOK 18/15 Q1013 LIPX 200720Z 01005KT CAVOK 16/14 Q1013 LIPX 200650Z 01003KT 340V040 CAVOK 15/13 Q1013 LIPX 200620Z 35003KT CAVOK 14/14 Q1012 LIPX 200550Z VRB02KT 9999 FEW015 14/13 Q1012 LIPX 200520Z 04005KT CAVOK 14/13 Q1011 LIPX 200450Z VRB02KT 9999 FEW005 13/12 Q1011 LIPX 200420Z 35003KT CAVOK 12/12 Q1011 LIPX 200350Z 01004KT CAVOK 13/13 Q1010 LIPX 200320Z 33005KT CAVOK 13/13 Q1010 LIPX 200250Z VRB01KT 9999 FEW090 11/11 Q1010 LIPX 200220Z 03002KT CAVOK 12/11 Q1010 LIPX 200150Z 23004KT 9999 FEW090 13/12 Q1010 LIPX 200120Z 22005KT 9999 SCT090 13/13 Q1010 LIPX 200050Z 24006KT 9999 SCT090 13/12 Q1010 LIPX 200020Z 25003KT 9999 SCT080 14/14 Q1010 LIPX 192350Z 27003KT 210V330 9999 SCT080 15/14 Q1010 RETS LIPX 192320Z 33005KT 9999 TS FEW040CB SCT070 14/14 Q1010 LIPX 192250Z 33004KT 9999 TS FEW030CB BKN070 15/14 Q1010 LIPX 192220Z 25003KT 9999 TS FEW040CB SCT070 15/14 Q1010 LIPX 192150Z 09003KT 070V220 9999 FEW070 13/13 Q1010 LIPX 192120Z 33003KT 300V030 9999 R04/1400D FEW030 13/12 Q1009 LIPX 192050Z 30003KT 240V330 9999 FEW050 SCT080 13/13 Q1009 LIPX 192020Z 35003KT 9999 MIFG FEW040 SCT070 13/13 Q1009 LIPX 191950Z 33004KT 9999 MIFG FEW040 SCT070 16/14 Q1009 LIPX 191920Z 34004KT 9999 MIFG SCT040 SCT070 12/12 Q1009 LIPX 191850Z 22003KT 160V280 9999 R04/1400U MIFG SCT040 SCT070 14/14 Q1009 LIPX 191820Z VRB01KT 9999 SCT040 SCT070 15/15 Q1009 LIPX 191750Z 06003KT 9999 SCT020 BKN070 15/15 Q1009 LIPX 191720Z 07005KT 9999 RA FEW015 SCT040CB BKN070 16/14 Q1008 RETS RERA LIPX 191650Z 04012KT 7000 R04/1400U TSRA FEW020 BKN040CB BKN070 15/15 Q1008 LIPX 191620Z 07008KT 9999 TS SCT035CB BKN070 20/16 Q1008 LIPX 191550Z 07011KT 9999 SCT025 SCT080 21/15 Q1008 LIPX 191520Z 07010KT 030V110 9999 SCT025 SCT080 21/16 Q1008 LIPX 191450Z 08011KT 040V110 9999 SCT050 SCT080 21/17 Q1008 LIPX 191420Z 09007KT 050V130 9999 -RA FEW020 SCT050 BKN080 21/17 Q1009 LIPX 191350Z 09006KT 050V120 9999 -RA BKN080 20/17 Q1009

METAR Messwerte

Zurück zur Übersicht

Ort
m ü. NN
Zeit Temperatur Taupunkt Rel.
Luftfeuchte
Luftdruck:
Altimeter
NN
Station
Wind in Beaufort
(Knoten)
Sichtweite
(Meter)
Wolken
(Meter über Grund)
Wettererscheinung
Verona/Villafranca
68
Di 21.09. 03:20161068 %1019
1019
1011
O 3 (8)
ONO - SO
>= 10000Wolkig (2100) 
Verona/Villafranca
68
Di 21.09. 02:20161382 %1019
1019
1011
O 3 (7)
ONO - SO
>= 10000Wolkig (2300) 
Verona/Villafranca
68
Di 21.09. 01:50161382 %1019
1019
1011
O 2 (5)
ONO - SO
>= 10000Wolkig (2100) 
Verona/Villafranca
68
Di 21.09. 00:50171377 %1019
1019
1011
O 3 (7)>= 10000Wolkig (2700) 
Verona/Villafranca
68
Di 21.09. 00:20171377 %1018
1018
1010
NO 2 (6)>= 10000Wolkig (2700) 
Verona/Villafranca
68
Mo 20.09. 23:50171482 %1018
1018
1010
O 3 (8)>= 10000Wolkig (2700) 
Verona/Villafranca
68
Mo 20.09. 23:20181373 %1018
1018
1010
O 2 (6)
ONO - OSO
>= 10000Wolkig (2700)Regen (schwach)
Verona/Villafranca
68
Mo 20.09. 22:50181373 %1018
1018
1010
O 3 (8)>= 10000Wolkig (2700)Nieselregen (schwach)
Verona/Villafranca
68
Mo 20.09. 22:20181373 %1018
1018
1010
O 2 (6)
NO - SO
>= 10000Wolkig (2700)Regen (schwach)
Verona/Villafranca
68
Mo 20.09. 21:50181373 %1017
1017
1009
OSO 2 (5)>= 10000Wolkig (1500)Regen (schwach)
Verona/Villafranca
68
Mo 20.09. 21:20181373 %1017
1017
1009
O 2 (4)
ONO - OSO
>= 10000Stark bewölkt (1500)Regen (schwach)
Verona/Villafranca
68
Mo 20.09. 20:50191368 %1016
1016
1008
ONO 2 (4)>= 10000Wolkig (2700) 
Verona/Villafranca
68
Mo 20.09. 20:20191264 %1016
1016
1008
ONO 2 (4)>= 10000Nicht signifikant 
Verona/Villafranca
68
Mo 20.09. 19:50191264 %1015
1015
1007
ONO 2 (6)>= 10000Wolkig (1500) 
Verona/Villafranca
68
Mo 20.09. 19:20201156 %1015
1015
1007
NO 3 (7)>= 10000Wolkig (1500) 
Verona/Villafranca
68
Mo 20.09. 18:50211153 %1015
1015
1007
ONO 3 (7)
NNO - O
>= 10000Stark bewölkt (1500) 
Verona/Villafranca
68
Mo 20.09. 18:20231147 %1014
1014
1006
NO 3 (10)>= 10000Stark bewölkt (1500) 
Verona/Villafranca
68
Mo 20.09. 17:50241247 %1014
1014
1006
O 2 (6)
ONO - SO
>= 10000Wolkig (1500) 
Verona/Villafranca
68
Mo 20.09. 17:20241247 %1014
1014
1006
O 2 (6)
NO - SO
>= 10000Wolkig (1500) 
Verona/Villafranca
68
Mo 20.09. 16:50241247 %1014
1014
1006
O 3 (8)
NO - OSO
>= 10000Wolkig (1500) 
Verona/Villafranca
68
Mo 20.09. 16:20241350 %1014
1014
1006
O 2 (5)
N - SSO
>= 10000Wolkig (1500) 
Verona/Villafranca
68
Mo 20.09. 15:50241247 %1014
1014
1006
O 2 (5)
NO - SO
>= 10000Nicht signifikant 
Verona/Villafranca
68
Mo 20.09. 15:20241350 %1014
1014
1006
SO 2 (6)
O - S
>= 10000Nicht signifikant 
Verona/Villafranca
68
Mo 20.09. 14:50231353 %1014
1014
1006
O 2 (5)
NNO - SSO
>= 10000Wolkig (1200) 
Verona/Villafranca
68
Mo 20.09. 14:20231457 %1014
1014
1006
SO 2 (5)
O - SSW
>= 10000Leicht bewölkt (910) 
Verona/Villafranca
68
Mo 20.09. 13:50231457 %1014
1014
1006
OSO 2 (6)
NO - S
>= 10000Wolkig (910) 
Verona/Villafranca
68
Mo 20.09. 13:20221460 %1014
1014
1006
SO 3 (7)
O - S
>= 10000Wolkig (910) 
Verona/Villafranca
68
Mo 20.09. 12:50221460 %1014
1014
1006
SSO 2 (6)
O - S
>= 10000Wolkig (910) 
Verona/Villafranca
68
Mo 20.09. 12:20211464 %1014
1014
1006
SO 2 (6)
NO - S
>= 10000Leicht bewölkt (910) 
Verona/Villafranca
68
Mo 20.09. 11:50211464 %1014
1014
1006
OSO 2 (6)
ONO - S
>= 10000Leicht bewölkt (910) 
Verona/Villafranca
68
Mo 20.09. 11:20201468 %1014
1014
1006
SO 2 (5)
O - S
>= 10000Nicht signifikant 
Verona/Villafranca
68
Mo 20.09. 10:50201573 %1013
1013
1005
OSO 2 (5)
NO - SSO
>= 10000Nicht signifikant 
Verona/Villafranca
68
Mo 20.09. 10:20191578 %1013
1013
1005
NO 2 (6)
NNO - O
>= 10000Nicht signifikant 
Verona/Villafranca
68
Mo 20.09. 09:50181583 %1013
1013
1005
NO 3 (7)>= 10000Nicht signifikant 
Verona/Villafranca
68
Mo 20.09. 09:20161488 %1013
1013
1005
N 2 (5)>= 10000Nicht signifikant 
Verona/Villafranca
68
Mo 20.09. 08:50151388 %1013
1013
1005
N 2 (3)
NNW - NO
>= 10000Nicht signifikant 
Verona/Villafranca
68
Mo 20.09. 08:201414100 %1012
1012
1004
N 2 (3)>= 10000Nicht signifikant 
Verona/Villafranca
68
Mo 20.09. 07:50141394 %1012
1012
1004
Uml 1 (2)>= 10000Leicht bewölkt (460) 
Verona/Villafranca
68
Mo 20.09. 07:20141394 %1011
1011
1003
NO 2 (5)>= 10000Nicht signifikant 
Verona/Villafranca
68
Mo 20.09. 06:50131294 %1011
1011
1003
Uml 1 (2)>= 10000Leicht bewölkt (150) 
Verona/Villafranca
68
Mo 20.09. 06:201212100 %1011
1011
1003
N 2 (3)>= 10000Nicht signifikant 
Verona/Villafranca
68
Mo 20.09. 05:501313100 %1010
1010
1002
N 2 (4)>= 10000Nicht signifikant 
Verona/Villafranca
68
Mo 20.09. 05:201313100 %1010
1010
1002
NNW 2 (5)>= 10000Nicht signifikant 
Verona/Villafranca
68
Mo 20.09. 04:501111100 %1010
1010
1002
Uml 1 (1)>= 10000Leicht bewölkt (2700) 
Verona/Villafranca
68
Mo 20.09. 04:20121194 %1010
1010
1002
NNO 1 (2)>= 10000Nicht signifikant 
Verona/Villafranca
68
Mo 20.09. 03:50131294 %1010
1010
1002
SW 2 (4)>= 10000Leicht bewölkt (2700) 
Verona/Villafranca
68
Mo 20.09. 03:201313100 %1010
1010
1002
SW 2 (5)>= 10000Wolkig (2700) 
Verona/Villafranca
68
Mo 20.09. 02:50131294 %1010
1010
1002
WSW 2 (6)>= 10000Wolkig (2700) 
Verona/Villafranca
68
Mo 20.09. 02:201414100 %1010
1010
1002
WSW 2 (3)>= 10000Wolkig (2400) 
Verona/Villafranca
68
Mo 20.09. 01:50151494 %1010
1010
1002
W 2 (3)
SSW - NNW
>= 10000Wolkig (2400) 
Verona/Villafranca
68
Mo 20.09. 01:201414100 %1010
1010
1002
NNW 2 (5)>= 10000Wolkig (2100)
Leicht bewölkt Cb (1200)
 
Verona/Villafranca
68
Mo 20.09. 00:50151494 %1010
1010
1002
NNW 2 (4)>= 10000Stark bewölkt (2100)
Leicht bewölkt Cb (910)
 
Verona/Villafranca
68
Mo 20.09. 00:20151494 %1010
1010
1002
WSW 2 (3)>= 10000Wolkig (2100)
Leicht bewölkt Cb (1200)
 
Verona/Villafranca
68
So 19.09. 23:501313100 %1010
1010
1002
O 2 (3)
ONO - SW
>= 10000Leicht bewölkt (2100) 
Verona/Villafranca
68
So 19.09. 23:20131294 %1009
1009
1001
NNW 2 (3)
WNW - NNO
>= 10000Leicht bewölkt (910) 
Verona/Villafranca
68
So 19.09. 22:501313100 %1009
1009
1001
WNW 2 (3)
WSW - NNW
>= 10000Wolkig (2400)
Leicht bewölkt (1500)
 
Verona/Villafranca
68
So 19.09. 22:201313100 %1009
1009
1001
N 2 (3)>= 10000Wolkig (2100)
Leicht bewölkt (1200)
Boden-Nebel
Verona/Villafranca
68
So 19.09. 21:50161488 %1009
1009
1001
NNW 2 (4)>= 10000Wolkig (2100)
Leicht bewölkt (1200)
Boden-Nebel
Verona/Villafranca
68
So 19.09. 21:201212100 %1009
1009
1001
NNW 2 (4)>= 10000Wolkig (2100)
Wolkig (1200)
Boden-Nebel
Verona/Villafranca
68
So 19.09. 20:501414100 %1009
1009
1001
SW 2 (3)
SSO - W
>= 10000Wolkig (2100)
Wolkig (1200)
Boden-Nebel
Verona/Villafranca
68
So 19.09. 20:201515100 %1009
1009
1001
Uml 1 (1)>= 10000Wolkig (2100)
Wolkig (1200)
 
Verona/Villafranca
68
So 19.09. 19:501515100 %1009
1009
1001
ONO 2 (3)>= 10000Stark bewölkt (2100)
Wolkig (610)
 
Verona/Villafranca
68
So 19.09. 19:20161488 %1008
1008
1000
ONO 2 (5)>= 10000Stark bewölkt (2100)
Wolkig Cb (1200)
Leicht bewölkt (460)
Regen
Verona/Villafranca
68
So 19.09. 18:501515100 %1008
1008
1000
NO 4 (12)7000Stark bewölkt (2100)
Stark bewölkt Cb (1200)
Leicht bewölkt (610)
Gewitter mit Regen
Verona/Villafranca
68
So 19.09. 18:20201678 %1008
1008
1000
ONO 3 (8)>= 10000Stark bewölkt (2100)
Wolkig Cb (1100)
 
Verona/Villafranca
68
So 19.09. 17:50211569 %1008
1008
1000
ONO 4 (11)>= 10000Wolkig (2400)
Wolkig (760)
 
Verona/Villafranca
68
So 19.09. 17:20211673 %1008
1008
1000
ONO 3 (10)
NNO - OSO
>= 10000Wolkig (2400)
Wolkig (760)
 
Verona/Villafranca
68
So 19.09. 16:50211778 %1008
1008
1000
O 4 (11)
NO - OSO
>= 10000Wolkig (2400)
Wolkig (1500)
 
Verona/Villafranca
68
So 19.09. 16:20211778 %1009
1009
1001
O 3 (7)
NO - SO
>= 10000Stark bewölkt (2400)
Wolkig (1500)
Leicht bewölkt (610)
Regen (schwach)
Verona/Villafranca
68
So 19.09. 15:50201783 %1009
1009
1001
O 2 (6)
NO - OSO
>= 10000Stark bewölkt (2400)Regen (schwach)

Altimeter: Einstellung am Altimeter (Höhenmesser), die Höhe 0 muss auf diesen Luftdruckwert zeigen, damit das Gerät die Stationshöhe richtig anzeigt.

NN: Luftdruck reduziert auf "Normal Null", auf Meereshöhe, dieser von der Temperatur abhängige Wert wird bisweilen unkorrekt einfach als "Luftdruck" bezeichnet. Eigentlich nur eine fiktive Größe, die es erlaubt, Stationen auf unterschiedlichen Höhen miteinander zu vergleichen.

Station: Realer Luftdruck an der Station.